sensor_id;sensor_type;location;lat;lon;timestamp;P1;P2;P0
79141;PMS5003;68550;-26.480;29.234;2023-07-08T00:00:54;86;85;
79141;PMS5003;68550;-26.480;29.234;2023-07-08T00:03:19;90;89;
79141;PMS5003;68550;-26.480;29.234;2023-07-08T00:05:44;94;90;
79141;PMS5003;68550;-26.480;29.234;2023-07-08T00:08:10;91;87;
79141;PMS5003;68550;-26.480;29.234;2023-07-08T00:10:35;84;84;
79141;PMS5003;68550;-26.480;29.234;2023-07-08T00:13:00;90;88;
79141;PMS5003;68550;-26.480;29.234;2023-07-08T00:15:26;89;85;
79141;PMS5003;68550;-26.480;29.234;2023-07-08T00:17:51;94;91;
79141;PMS5003;68550;-26.480;29.234;2023-07-08T00:20:17;90;87;
79141;PMS5003;68550;-26.480;29.234;2023-07-08T00:22:42;98;95;
79141;PMS5003;68550;-26.480;29.234;2023-07-08T00:25:09;85;84;
79141;PMS5003;68550;-26.480;29.234;2023-07-08T00:27:33;87;86;
79141;PMS5003;68550;-26.480;29.234;2023-07-08T00:29:59;87;85;
79141;PMS5003;68550;-26.480;29.234;2023-07-08T00:32:24;85;83;
79141;PMS5003;68550;-26.480;29.234;2023-07-08T00:34:49;83;82;
79141;PMS5003;68550;-26.480;29.234;2023-07-08T00:37:14;89;88;
79141;PMS5003;68550;-26.480;29.234;2023-07-08T00:39:40;94;90;
79141;PMS5003;68550;-26.480;29.234;2023-07-08T00:42:10;87;86;
79141;PMS5003;68550;-26.480;29.234;2023-07-08T00:44:31;90;89;
79141;PMS5003;68550;-26.480;29.234;2023-07-08T00:47:00;86;86;
79141;PMS5003;68550;-26.480;29.234;2023-07-08T00:49:26;95;94;
79141;PMS5003;68550;-26.480;29.234;2023-07-08T00:51:48;95;93;
79141;PMS5003;68550;-26.480;29.234;2023-07-08T00:54:13;94;91;
79141;PMS5003;68550;-26.480;29.234;2023-07-08T00:56:39;92;90;
79141;PMS5003;68550;-26.480;29.234;2023-07-08T00:59:05;90;88;
79141;PMS5003;68550;-26.480;29.234;2023-07-08T01:01:34;94;90;
79141;PMS5003;68550;-26.480;29.234;2023-07-08T01:03:58;94;92;
79141;PMS5003;68550;-26.480;29.234;2023-07-08T01:06:21;104;99;
79141;PMS5003;68550;-26.480;29.234;2023-07-08T01:08:46;91;91;
79141;PMS5003;68550;-26.480;29.234;2023-07-08T01:11:12;94;92;
79141;PMS5003;68550;-26.480;29.234;2023-07-08T01:13:38;103;100;
79141;PMS5003;68550;-26.480;29.234;2023-07-08T01:16:04;97;93;
79141;PMS5003;68550;-26.480;29.234;2023-07-08T01:18:28;92;90;
79141;PMS5003;68550;-26.480;29.234;2023-07-08T01:20:55;103;101;
79141;PMS5003;68550;-26.480;29.234;2023-07-08T01:23:19;94;90;
79141;PMS5003;68550;-26.480;29.234;2023-07-08T01:25:45;98;95;
79141;PMS5003;68550;-26.480;29.234;2023-07-08T01:28:12;94;93;
79141;PMS5003;68550;-26.480;29.234;2023-07-08T01:30:35;105;104;
79141;PMS5003;68550;-26.480;29.234;2023-07-08T01:33:01;103;102;
79141;PMS5003;68550;-26.480;29.234;2023-07-08T01:35:26;96;95;
79141;PMS5003;68550;-26.480;29.234;2023-07-08T01:37:53;98;94;
79141;PMS5003;68550;-26.480;29.234;2023-07-08T01:40:25;100;99;
79141;PMS5003;68550;-26.480;29.234;2023-07-08T01:42:43;90;87;
79141;PMS5003;68550;-26.480;29.234;2023-07-08T01:45:10;97;94;
79141;PMS5003;68550;-26.480;29.234;2023-07-08T01:47:33;94;91;
79141;PMS5003;68550;-26.480;29.234;2023-07-08T01:49:58;99;98;
79141;PMS5003;68550;-26.480;29.234;2023-07-08T01:52:26;95;94;
79141;PMS5003;68550;-26.480;29.234;2023-07-08T01:57:15;95;94;
79141;PMS5003;68550;-26.480;29.234;2023-07-08T01:59:41;101;97;
79141;PMS5003;68550;-26.480;29.234;2023-07-08T02:02:06;102;97;
79141;PMS5003;68550;-26.480;29.234;2023-07-08T02:04:33;103;102;
79141;PMS5003;68550;-26.480;29.234;2023-07-08T02:06:59;101;99;
79141;PMS5003;68550;-26.480;29.234;2023-07-08T02:09:23;96;93;
79141;PMS5003;68550;-26.480;29.234;2023-07-08T02:11:48;102;98;
79141;PMS5003;68550;-26.480;29.234;2023-07-08T02:14:14;97;96;
79141;PMS5003;68550;-26.480;29.234;2023-07-08T02:16:39;101;98;
79141;PMS5003;68550;-26.480;29.234;2023-07-08T02:19:04;97;94;
79141;PMS5003;68550;-26.480;29.234;2023-07-08T02:21:32;95;95;
79141;PMS5003;68550;-26.480;29.234;2023-07-08T02:23:56;94;92;
79141;PMS5003;68550;-26.480;29.234;2023-07-08T02:26:21;103;100;
79141;PMS5003;68550;-26.480;29.234;2023-07-08T02:28:46;102;98;
79141;PMS5003;68550;-26.480;29.234;2023-07-08T02:31:12;98;94;
79141;PMS5003;68550;-26.480;29.234;2023-07-08T02:33:38;100;97;
79141;PMS5003;68550;-26.480;29.234;2023-07-08T02:36:05;103;99;
79141;PMS5003;68550;-26.480;29.234;2023-07-08T02:38:29;102;101;
79141;PMS5003;68550;-26.480;29.234;2023-07-08T02:40:54;92;91;
79141;PMS5003;68550;-26.480;29.234;2023-07-08T02:43:20;98;96;
79141;PMS5003;68550;-26.480;29.234;2023-07-08T02:45:45;95;93;
79141;PMS5003;68550;-26.480;29.234;2023-07-08T02:48:11;94;93;
79141;PMS5003;68550;-26.480;29.234;2023-07-08T02:50:36;94;93;
79141;PMS5003;68550;-26.480;29.234;2023-07-08T02:53:01;92;91;
79141;PMS5003;68550;-26.480;29.234;2023-07-08T02:55:26;90;87;
79141;PMS5003;68550;-26.480;29.234;2023-07-08T02:57:52;96;95;
79141;PMS5003;68550;-26.480;29.234;2023-07-08T03:00:20;102;101;
79141;PMS5003;68550;-26.480;29.234;2023-07-08T03:02:44;89;87;
79141;PMS5003;68550;-26.480;29.234;2023-07-08T03:05:09;92;89;
79141;PMS5003;68550;-26.480;29.234;2023-07-08T03:07:34;92;90;
79141;PMS5003;68550;-26.480;29.234;2023-07-08T03:10:00;91;89;
79141;PMS5003;68550;-26.480;29.234;2023-07-08T03:12:26;91;89;
79141;PMS5003;68550;-26.480;29.234;2023-07-08T03:14:52;87;85;
79141;PMS5003;68550;-26.480;29.234;2023-07-08T03:17:17;89;89;
79141;PMS5003;68550;-26.480;29.234;2023-07-08T03:19:42;97;95;
79141;PMS5003;68550;-26.480;29.234;2023-07-08T03:22:07;96;93;
79141;PMS5003;68550;-26.480;29.234;2023-07-08T03:24:34;89;88;
79141;PMS5003;68550;-26.480;29.234;2023-07-08T03:26:59;98;95;
79141;PMS5003;68550;-26.480;29.234;2023-07-08T03:29:24;95;94;
79141;PMS5003;68550;-26.480;29.234;2023-07-08T03:31:49;93;90;
79141;PMS5003;68550;-26.480;29.234;2023-07-08T03:34:15;93;91;
79141;PMS5003;68550;-26.480;29.234;2023-07-08T03:36:45;98;95;
79141;PMS5003;68550;-26.480;29.234;2023-07-08T03:39:05;95;94;
79141;PMS5003;68550;-26.480;29.234;2023-07-08T03:41:31;95;91;
79141;PMS5003;68550;-26.480;29.234;2023-07-08T03:43:56;95;92;
79141;PMS5003;68550;-26.480;29.234;2023-07-08T03:46:21;96;95;
79141;PMS5003;68550;-26.480;29.234;2023-07-08T03:48:47;97;96;
79141;PMS5003;68550;-26.480;29.234;2023-07-08T03:51:14;103;100;
79141;PMS5003;68550;-26.480;29.234;2023-07-08T03:53:38;99;97;
79141;PMS5003;68550;-26.480;29.234;2023-07-08T03:56:04;92;89;
79141;PMS5003;68550;-26.480;29.234;2023-07-08T03:58:29;92;92;
79141;PMS5003;68550;-26.480;29.234;2023-07-08T04:00:57;107;102;
79141;PMS5003;68550;-26.480;29.234;2023-07-08T04:03:20;93;92;
79141;PMS5003;68550;-26.480;29.234;2023-07-08T04:05:45;90;88;
79141;PMS5003;68550;-26.480;29.234;2023-07-08T04:08:11;93;91;
79141;PMS5003;68550;-26.480;29.234;2023-07-08T04:10:37;97;95;
79141;PMS5003;68550;-26.480;29.234;2023-07-08T04:13:04;92;90;
79141;PMS5003;68550;-26.480;29.234;2023-07-08T04:15:27;97;94;
79141;PMS5003;68550;-26.480;29.234;2023-07-08T04:17:53;106;102;
79141;PMS5003;68550;-26.480;29.234;2023-07-08T04:20:18;99;95;
79141;PMS5003;68550;-26.480;29.234;2023-07-08T04:22:43;100;99;
79141;PMS5003;68550;-26.480;29.234;2023-07-08T04:25:09;101;97;
79141;PMS5003;68550;-26.480;29.234;2023-07-08T04:27:35;95;93;
79141;PMS5003;68550;-26.480;29.234;2023-07-08T04:29:59;96;94;
79141;PMS5003;68550;-26.480;29.234;2023-07-08T04:32:25;104;101;
79141;PMS5003;68550;-26.480;29.234;2023-07-08T04:34:50;100;97;
79141;PMS5003;68550;-26.480;29.234;2023-07-08T04:37:15;106;104;
79141;PMS5003;68550;-26.480;29.234;2023-07-08T04:39:45;101;99;
79141;PMS5003;68550;-26.480;29.234;2023-07-08T04:42:06;102;101;
79141;PMS5003;68550;-26.480;29.234;2023-07-08T04:44:31;96;95;
79141;PMS5003;68550;-26.480;29.234;2023-07-08T04:46:57;106;105;
79141;PMS5003;68550;-26.480;29.234;2023-07-08T04:49:23;104;102;
79141;PMS5003;68550;-26.480;29.234;2023-07-08T04:51:51;100;99;
79141;PMS5003;68550;-26.480;29.234;2023-07-08T04:54:14;104;104;
79141;PMS5003;68550;-26.480;29.234;2023-07-08T04:56:39;103;101;
79141;PMS5003;68550;-26.480;29.234;2023-07-08T04:59:05;99;97;
79141;PMS5003;68550;-26.480;29.234;2023-07-08T05:01:29;110;106;
79141;PMS5003;68550;-26.480;29.234;2023-07-08T05:03:56;108;104;
79141;PMS5003;68550;-26.480;29.234;2023-07-08T05:06:21;103;101;
79141;PMS5003;68550;-26.480;29.234;2023-07-08T05:08:46;117;112;
79141;PMS5003;68550;-26.480;29.234;2023-07-08T05:11:11;107;104;
79141;PMS5003;68550;-26.480;29.234;2023-07-08T05:13:37;107;106;
79141;PMS5003;68550;-26.480;29.234;2023-07-08T05:16:02;102;101;
79141;PMS5003;68550;-26.480;29.234;2023-07-08T05:18:28;106;104;
79141;PMS5003;68550;-26.480;29.234;2023-07-08T05:20:54;101;97;
79141;PMS5003;68550;-26.480;29.234;2023-07-08T05:23:19;108;107;
79141;PMS5003;68550;-26.480;29.234;2023-07-08T05:25:45;102;99;
79141;PMS5003;68550;-26.480;29.234;2023-07-08T05:28:10;103;103;
79141;PMS5003;68550;-26.480;29.234;2023-07-08T05:30:36;105;103;
79141;PMS5003;68550;-26.480;29.234;2023-07-08T05:33:01;102;100;
79141;PMS5003;68550;-26.480;29.234;2023-07-08T05:35:27;101;99;
79141;PMS5003;68550;-26.480;29.234;2023-07-08T05:37:53;94;93;
79141;PMS5003;68550;-26.480;29.234;2023-07-08T05:40:18;109;105;
79141;PMS5003;68550;-26.480;29.234;2023-07-08T05:42:45;102;100;
79141;PMS5003;68550;-26.480;29.234;2023-07-08T05:45:09;101;99;
79141;PMS5003;68550;-26.480;29.234;2023-07-08T05:47:34;103;101;
79141;PMS5003;68550;-26.480;29.234;2023-07-08T05:49:59;108;104;
79141;PMS5003;68550;-26.480;29.234;2023-07-08T05:52:24;92;91;
79141;PMS5003;68550;-26.480;29.234;2023-07-08T05:54:50;107;102;
79141;PMS5003;68550;-26.480;29.234;2023-07-08T05:57:15;102;100;
79141;PMS5003;68550;-26.480;29.234;2023-07-08T05:59:40;99;98;
79141;PMS5003;68550;-26.480;29.234;2023-07-08T06:02:06;93;91;
79141;PMS5003;68550;-26.480;29.234;2023-07-08T06:04:32;102;99;
79141;PMS5003;68550;-26.480;29.234;2023-07-08T06:06:59;105;99;
79141;PMS5003;68550;-26.480;29.234;2023-07-08T06:09:22;90;86;
79141;PMS5003;68550;-26.480;29.234;2023-07-08T06:11:48;92;89;
79141;PMS5003;68550;-26.480;29.234;2023-07-08T06:14:14;93;91;
79141;PMS5003;68550;-26.480;29.234;2023-07-08T06:16:39;91;90;
79141;PMS5003;68550;-26.480;29.234;2023-07-08T06:19:06;89;85;
79141;PMS5003;68550;-26.480;29.234;2023-07-08T06:21:29;90;87;
79141;PMS5003;68550;-26.480;29.234;2023-07-08T06:23:56;91;91;
79141;PMS5003;68550;-26.480;29.234;2023-07-08T06:26:20;90;87;
79141;PMS5003;68550;-26.480;29.234;2023-07-08T06:28:45;90;88;
79141;PMS5003;68550;-26.480;29.234;2023-07-08T06:31:11;83;82;
79141;PMS5003;68550;-26.480;29.234;2023-07-08T06:33:36;89;86;
79141;PMS5003;68550;-26.480;29.234;2023-07-08T06:36:02;83;83;
79141;PMS5003;68550;-26.480;29.234;2023-07-08T06:38:28;81;79;
79141;PMS5003;68550;-26.480;29.234;2023-07-08T06:40:52;80;80;
79141;PMS5003;68550;-26.480;29.234;2023-07-08T06:43:17;89;87;
79141;PMS5003;68550;-26.480;29.234;2023-07-08T06:45:43;84;78;
79141;PMS5003;68550;-26.480;29.234;2023-07-08T06:48:08;74;72;
79141;PMS5003;68550;-26.480;29.234;2023-07-08T06:50:34;80;78;
79141;PMS5003;68550;-26.480;29.234;2023-07-08T06:52:59;71;71;
79141;PMS5003;68550;-26.480;29.234;2023-07-08T06:55:24;75;72;
79141;PMS5003;68550;-26.480;29.234;2023-07-08T06:57:51;71;70;
79141;PMS5003;68550;-26.480;29.234;2023-07-08T07:00:16;70;69;
79141;PMS5003;68550;-26.480;29.234;2023-07-08T07:02:41;73;71;
79141;PMS5003;68550;-26.480;29.234;2023-07-08T07:05:07;77;75;
79141;PMS5003;68550;-26.480;29.234;2023-07-08T07:07:32;76;73;
79141;PMS5003;68550;-26.480;29.234;2023-07-08T07:09:57;67;64;
79141;PMS5003;68550;-26.480;29.234;2023-07-08T07:12:25;72;70;
79141;PMS5003;68550;-26.480;29.234;2023-07-08T07:14:48;71;71;
79141;PMS5003;68550;-26.480;29.234;2023-07-08T07:17:14;68;66;
79141;PMS5003;68550;-26.480;29.234;2023-07-08T07:19:39;68;67;
79141;PMS5003;68550;-26.480;29.234;2023-07-08T07:22:05;69;69;
79141;PMS5003;68550;-26.480;29.234;2023-07-08T07:24:30;59;57;
79141;PMS5003;68550;-26.480;29.234;2023-07-08T07:26:58;63;63;
79141;PMS5003;68550;-26.480;29.234;2023-07-08T07:29:22;61;61;
79141;PMS5003;68550;-26.480;29.234;2023-07-08T07:31:49;63;61;
79141;PMS5003;68550;-26.480;29.234;2023-07-08T07:34:13;72;64;
79141;PMS5003;68550;-26.480;29.234;2023-07-08T07:36:38;60;59;
79141;PMS5003;68550;-26.480;29.234;2023-07-08T07:39:04;63;61;
79141;PMS5003;68550;-26.480;29.234;2023-07-08T07:41:29;60;60;
79141;PMS5003;68550;-26.480;29.234;2023-07-08T07:43:58;58;56;
79141;PMS5003;68550;-26.480;29.234;2023-07-08T07:46:21;63;59;
79141;PMS5003;68550;-26.480;29.234;2023-07-08T07:48:46;54;53;
79141;PMS5003;68550;-26.480;29.234;2023-07-08T07:51:11;56;55;
79141;PMS5003;68550;-26.480;29.234;2023-07-08T07:53:37;56;55;
79141;PMS5003;68550;-26.480;29.234;2023-07-08T07:56:05;53;52;
79141;PMS5003;68550;-26.480;29.234;2023-07-08T07:58:28;56;55;
79141;PMS5003;68550;-26.480;29.234;2023-07-08T08:00:54;58;56;
79141;PMS5003;68550;-26.480;29.234;2023-07-08T08:03:19;55;55;
79141;PMS5003;68550;-26.480;29.234;2023-07-08T08:05:44;56;54;
79141;PMS5003;68550;-26.480;29.234;2023-07-08T08:08:10;63;62;
79141;PMS5003;68550;-26.480;29.234;2023-07-08T08:10:35;54;52;
79141;PMS5003;68550;-26.480;29.234;2023-07-08T08:13:01;53;51;
79141;PMS5003;68550;-26.480;29.234;2023-07-08T08:15:27;54;54;
79141;PMS5003;68550;-26.480;29.234;2023-07-08T08:17:52;55;54;
79141;PMS5003;68550;-26.480;29.234;2023-07-08T08:20:22;50;49;
79141;PMS5003;68550;-26.480;29.234;2023-07-08T08:22:43;55;54;
79141;PMS5003;68550;-26.480;29.234;2023-07-08T08:25:08;50;50;
79141;PMS5003;68550;-26.480;29.234;2023-07-08T08:27:33;53;53;
79141;PMS5003;68550;-26.480;29.234;2023-07-08T08:29:59;52;48;
79141;PMS5003;68550;-26.480;29.234;2023-07-08T08:32:25;51;50;
79141;PMS5003;68550;-26.480;29.234;2023-07-08T08:34:51;50;50;
79141;PMS5003;68550;-26.480;29.234;2023-07-08T08:37:16;50;49;
79141;PMS5003;68550;-26.480;29.234;2023-07-08T08:39:41;49;48;
79141;PMS5003;68550;-26.480;29.234;2023-07-08T08:42:08;54;52;
79141;PMS5003;68550;-26.480;29.234;2023-07-08T08:44:33;48;48;
79141;PMS5003;68550;-26.480;29.234;2023-07-08T08:47:00;46;46;
79141;PMS5003;68550;-26.480;29.234;2023-07-08T08:49:24;52;52;
79141;PMS5003;68550;-26.480;29.234;2023-07-08T08:51:48;50;48;
79141;PMS5003;68550;-26.480;29.234;2023-07-08T08:54:14;44;44;
79141;PMS5003;68550;-26.480;29.234;2023-07-08T08:56:43;44;44;
79141;PMS5003;68550;-26.480;29.234;2023-07-08T08:59:11;51;49;
79141;PMS5003;68550;-26.480;29.234;2023-07-08T09:01:31;45;45;
79141;PMS5003;68550;-26.480;29.234;2023-07-08T09:03:57;49;49;
79141;PMS5003;68550;-26.480;29.234;2023-07-08T09:06:23;44;44;
79141;PMS5003;68550;-26.480;29.234;2023-07-08T09:08:47;49;48;
79141;PMS5003;68550;-26.480;29.234;2023-07-08T09:11:17;46;45;
79141;PMS5003;68550;-26.480;29.234;2023-07-08T09:13:38;49;46;
79141;PMS5003;68550;-26.480;29.234;2023-07-08T09:16:06;49;47;
79141;PMS5003;68550;-26.480;29.234;2023-07-08T09:18:32;48;48;
79141;PMS5003;68550;-26.480;29.234;2023-07-08T09:20:54;51;50;
79141;PMS5003;68550;-26.480;29.234;2023-07-08T09:33:02;53;53;
79141;PMS5003;68550;-26.480;29.234;2023-07-08T09:35:27;43;42;
79141;PMS5003;68550;-26.480;29.234;2023-07-08T09:37:52;52;51;
79141;PMS5003;68550;-26.480;29.234;2023-07-08T09:40:18;56;52;
79141;PMS5003;68550;-26.480;29.234;2023-07-08T09:42:46;49;48;
79141;PMS5003;68550;-26.480;29.234;2023-07-08T09:45:12;47;46;
79141;PMS5003;68550;-26.480;29.234;2023-07-08T09:47:34;47;47;
79141;PMS5003;68550;-26.480;29.234;2023-07-08T09:49:59;51;49;
79141;PMS5003;68550;-26.480;29.234;2023-07-08T09:52:24;47;46;
79141;PMS5003;68550;-26.480;29.234;2023-07-08T09:54:49;50;50;
79141;PMS5003;68550;-26.480;29.234;2023-07-08T09:57:18;51;47;
79141;PMS5003;68550;-26.480;29.234;2023-07-08T09:59:41;50;50;
79141;PMS5003;68550;-26.480;29.234;2023-07-08T10:04:30;49;48;
79141;PMS5003;68550;-26.480;29.234;2023-07-08T10:06:56;48;47;
79141;PMS5003;68550;-26.480;29.234;2023-07-08T10:09:23;50;49;
79141;PMS5003;68550;-26.480;29.234;2023-07-08T10:11:48;53;53;
79141;PMS5003;68550;-26.480;29.234;2023-07-08T10:14:16;48;48;
79141;PMS5003;68550;-26.480;29.234;2023-07-08T10:16:38;46;46;
79141;PMS5003;68550;-26.480;29.234;2023-07-08T10:19:07;48;48;
79141;PMS5003;68550;-26.480;29.234;2023-07-08T10:21:31;51;50;
79141;PMS5003;68550;-26.480;29.234;2023-07-08T10:23:55;49;49;
79141;PMS5003;68550;-26.480;29.234;2023-07-08T10:26:21;54;54;
79141;PMS5003;68550;-26.480;29.234;2023-07-08T10:28:45;54;53;
79141;PMS5003;68550;-26.480;29.234;2023-07-08T10:31:17;49;48;
79141;PMS5003;68550;-26.480;29.234;2023-07-08T10:33:40;50;49;
79141;PMS5003;68550;-26.480;29.234;2023-07-08T10:36:08;54;53;
79141;PMS5003;68550;-26.480;29.234;2023-07-08T10:38:31;48;48;
79141;PMS5003;68550;-26.480;29.234;2023-07-08T10:40:52;49;48;
79141;PMS5003;68550;-26.480;29.234;2023-07-08T10:43:21;49;49;
79141;PMS5003;68550;-26.480;29.234;2023-07-08T10:45:44;48;48;
79141;PMS5003;68550;-26.480;29.234;2023-07-08T10:48:11;48;46;
79141;PMS5003;68550;-26.480;29.234;2023-07-08T10:50:43;49;48;
79141;PMS5003;68550;-26.480;29.234;2023-07-08T10:52:59;52;52;
79141;PMS5003;68550;-26.480;29.234;2023-07-08T10:55:28;53;51;
79141;PMS5003;68550;-26.480;29.234;2023-07-08T10:57:56;55;54;
79141;PMS5003;68550;-26.480;29.234;2023-07-08T11:00:18;58;57;
79141;PMS5003;68550;-26.480;29.234;2023-07-08T11:05:11;51;50;
79141;PMS5003;68550;-26.480;29.234;2023-07-08T11:07:32;56;54;
79141;PMS5003;68550;-26.480;29.234;2023-07-08T11:09:57;49;48;
79141;PMS5003;68550;-26.480;29.234;2023-07-08T11:12:23;56;54;
79141;PMS5003;68550;-26.480;29.234;2023-07-08T11:14:48;55;53;
79141;PMS5003;68550;-26.480;29.234;2023-07-08T11:17:13;57;56;
79141;PMS5003;68550;-26.480;29.234;2023-07-08T11:19:38;52;50;
79141;PMS5003;68550;-26.480;29.234;2023-07-08T11:22:03;45;44;
79141;PMS5003;68550;-26.480;29.234;2023-07-08T11:24:30;55;54;
79141;PMS5003;68550;-26.480;29.234;2023-07-08T11:26:55;50;49;
79141;PMS5003;68550;-26.480;29.234;2023-07-08T11:29:22;49;47;
79141;PMS5003;68550;-26.480;29.234;2023-07-08T11:31:45;58;56;
79141;PMS5003;68550;-26.480;29.234;2023-07-08T11:34:10;48;48;
79141;PMS5003;68550;-26.480;29.234;2023-07-08T11:36:36;55;55;
79141;PMS5003;68550;-26.480;29.234;2023-07-08T11:39:02;52;51;
79141;PMS5003;68550;-26.480;29.234;2023-07-08T11:41:31;51;50;
79141;PMS5003;68550;-26.480;29.234;2023-07-08T11:43:54;43;43;
79141;PMS5003;68550;-26.480;29.234;2023-07-08T11:46:19;45;44;
79141;PMS5003;68550;-26.480;29.234;2023-07-08T11:48:45;52;50;
79141;PMS5003;68550;-26.480;29.234;2023-07-08T11:51:09;52;51;
79141;PMS5003;68550;-26.480;29.234;2023-07-08T11:53:35;49;48;
79141;PMS5003;68550;-26.480;29.234;2023-07-08T11:56:01;52;52;
79141;PMS5003;68550;-26.480;29.234;2023-07-08T11:58:26;59;56;
79141;PMS5003;68550;-26.480;29.234;2023-07-08T12:00:52;52;51;
79141;PMS5003;68550;-26.480;29.234;2023-07-08T12:03:19;53;52;
79141;PMS5003;68550;-26.480;29.234;2023-07-08T12:05:42;58;56;
79141;PMS5003;68550;-26.480;29.234;2023-07-08T12:08:11;59;58;
79141;PMS5003;68550;-26.480;29.234;2023-07-08T12:10:34;61;58;
79141;PMS5003;68550;-26.480;29.234;2023-07-08T12:12:59;61;60;
79141;PMS5003;68550;-26.480;29.234;2023-07-08T12:15:25;64;63;
79141;PMS5003;68550;-26.480;29.234;2023-07-08T12:17:50;61;61;
79141;PMS5003;68550;-26.480;29.234;2023-07-08T12:20:18;67;66;
79141;PMS5003;68550;-26.480;29.234;2023-07-08T12:22:41;65;63;
79141;PMS5003;68550;-26.480;29.234;2023-07-08T12:25:09;71;67;
79141;PMS5003;68550;-26.480;29.234;2023-07-08T12:27:32;70;66;
79141;PMS5003;68550;-26.480;29.234;2023-07-08T12:29:58;68;65;
79141;PMS5003;68550;-26.480;29.234;2023-07-08T12:32:23;72;70;
79141;PMS5003;68550;-26.480;29.234;2023-07-08T12:34:49;68;68;
79141;PMS5003;68550;-26.480;29.234;2023-07-08T12:37:14;77;73;
79141;PMS5003;68550;-26.480;29.234;2023-07-08T12:39:41;71;69;
79141;PMS5003;68550;-26.480;29.234;2023-07-08T12:42:08;65;62;
79141;PMS5003;68550;-26.480;29.234;2023-07-08T12:44:30;69;65;
79141;PMS5003;68550;-26.480;29.234;2023-07-08T12:47:01;73;67;
79141;PMS5003;68550;-26.480;29.234;2023-07-08T12:49:21;74;72;
79141;PMS5003;68550;-26.480;29.234;2023-07-08T12:51:47;70;69;
79141;PMS5003;68550;-26.480;29.234;2023-07-08T12:54:12;72;68;
79141;PMS5003;68550;-26.480;29.234;2023-07-08T12:56:37;63;62;
79141;PMS5003;68550;-26.480;29.234;2023-07-08T12:59:03;68;65;
79141;PMS5003;68550;-26.480;29.234;2023-07-08T13:01:29;65;65;
79141;PMS5003;68550;-26.480;29.234;2023-07-08T13:03:55;67;66;
79141;PMS5003;68550;-26.480;29.234;2023-07-08T13:06:19;60;57;
79141;PMS5003;68550;-26.480;29.234;2023-07-08T13:08:43;60;59;
79141;PMS5003;68550;-26.480;29.234;2023-07-08T13:11:11;66;64;
79141;PMS5003;68550;-26.480;29.234;2023-07-08T13:13:35;62;58;
79141;PMS5003;68550;-26.480;29.234;2023-07-08T13:15:59;64;63;
79141;PMS5003;68550;-26.480;29.234;2023-07-08T13:18:28;62;59;
79141;PMS5003;68550;-26.480;29.234;2023-07-08T13:20:51;62;57;
79141;PMS5003;68550;-26.480;29.234;2023-07-08T13:23:16;60;58;
79141;PMS5003;68550;-26.480;29.234;2023-07-08T13:25:41;61;60;
79141;PMS5003;68550;-26.480;29.234;2023-07-08T13:28:16;61;57;
79141;PMS5003;68550;-26.480;29.234;2023-07-08T13:30:34;55;55;
79141;PMS5003;68550;-26.480;29.234;2023-07-08T13:32:58;52;51;
79141;PMS5003;68550;-26.480;29.234;2023-07-08T13:35:25;54;53;
79141;PMS5003;68550;-26.480;29.234;2023-07-08T13:37:49;56;53;
79141;PMS5003;68550;-26.480;29.234;2023-07-08T13:40:16;49;49;
79141;PMS5003;68550;-26.480;29.234;2023-07-08T13:47:30;49;49;
79141;PMS5003;68550;-26.480;29.234;2023-07-08T13:49:59;61;60;
79141;PMS5003;68550;-26.480;29.234;2023-07-08T13:52:22;54;52;
79141;PMS5003;68550;-26.480;29.234;2023-07-08T13:54:48;49;48;
79141;PMS5003;68550;-26.480;29.234;2023-07-08T13:57:15;49;47;
79141;PMS5003;68550;-26.480;29.234;2023-07-08T13:59:38;56;51;
79141;PMS5003;68550;-26.480;29.234;2023-07-08T14:02:13;50;48;
79141;PMS5003;68550;-26.480;29.234;2023-07-08T14:04:29;51;49;
79141;PMS5003;68550;-26.480;29.234;2023-07-08T14:06:54;44;44;
79141;PMS5003;68550;-26.480;29.234;2023-07-08T14:09:19;49;49;
79141;PMS5003;68550;-26.480;29.234;2023-07-08T14:11:44;50;50;
79141;PMS5003;68550;-26.480;29.234;2023-07-08T14:14:10;47;46;
79141;PMS5003;68550;-26.480;29.234;2023-07-08T14:16:36;48;47;
79141;PMS5003;68550;-26.480;29.234;2023-07-08T14:19:00;45;43;
79141;PMS5003;68550;-26.480;29.234;2023-07-08T14:21:25;45;44;
79141;PMS5003;68550;-26.480;29.234;2023-07-08T14:23:51;41;41;
79141;PMS5003;68550;-26.480;29.234;2023-07-08T14:26:18;53;51;
79141;PMS5003;68550;-26.480;29.234;2023-07-08T14:28:41;47;46;
79141;PMS5003;68550;-26.480;29.234;2023-07-08T14:31:08;48;46;
79141;PMS5003;68550;-26.480;29.234;2023-07-08T14:33:32;43;42;
79141;PMS5003;68550;-26.480;29.234;2023-07-08T14:35:57;45;42;
79141;PMS5003;68550;-26.480;29.234;2023-07-08T14:38:24;45;44;
79141;PMS5003;68550;-26.480;29.234;2023-07-08T14:40:48;46;45;
79141;PMS5003;68550;-26.480;29.234;2023-07-08T14:43:15;41;39;
79141;PMS5003;68550;-26.480;29.234;2023-07-08T14:45:39;40;39;
79141;PMS5003;68550;-26.480;29.234;2023-07-08T14:48:07;40;39;
79141;PMS5003;68550;-26.480;29.234;2023-07-08T14:50:31;44;44;
79141;PMS5003;68550;-26.480;29.234;2023-07-08T14:52:55;41;41;
79141;PMS5003;68550;-26.480;29.234;2023-07-08T14:55:21;38;38;
79141;PMS5003;68550;-26.480;29.234;2023-07-08T14:57:47;38;37;
79141;PMS5003;68550;-26.480;29.234;2023-07-08T15:00:13;42;41;
79141;PMS5003;68550;-26.480;29.234;2023-07-08T15:05:46;31;23;
79141;PMS5003;68550;-26.480;29.234;2023-07-08T15:29:43;36;33;
79141;PMS5003;68550;-26.480;29.234;2023-07-08T15:39:27;39;35;
79141;PMS5003;68550;-26.480;29.234;2023-07-08T15:41:53;31;28;
79141;PMS5003;68550;-26.480;29.234;2023-07-08T15:44:18;33;33;
79141;PMS5003;68550;-26.480;29.234;2023-07-08T15:46:45;33;32;
79141;PMS5003;68550;-26.480;29.234;2023-07-08T15:49:12;35;34;
79141;PMS5003;68550;-26.480;29.234;2023-07-08T15:51:35;38;38;
79141;PMS5003;68550;-26.480;29.234;2023-07-08T15:58:52;33;32;
79141;PMS5003;68550;-26.480;29.234;2023-07-08T16:01:18;38;37;
79141;PMS5003;68550;-26.480;29.234;2023-07-08T16:03:43;30;29;
79141;PMS5003;68550;-26.480;29.234;2023-07-08T16:06:09;37;37;
79141;PMS5003;68550;-26.480;29.234;2023-07-08T16:08:34;38;37;
79141;PMS5003;68550;-26.480;29.234;2023-07-08T16:11:01;34;31;
79141;PMS5003;68550;-26.480;29.234;2023-07-08T16:13:26;33;32;
79141;PMS5003;68550;-26.480;29.234;2023-07-08T16:15:51;36;36;
79141;PMS5003;68550;-26.480;29.234;2023-07-08T16:18:15;36;35;
79141;PMS5003;68550;-26.480;29.234;2023-07-08T16:44:56;51;49;
79141;PMS5003;68550;-26.480;29.234;2023-07-08T16:47:23;43;42;
79141;PMS5003;68550;-26.480;29.234;2023-07-08T16:49:47;41;41;
79141;PMS5003;68550;-26.480;29.234;2023-07-08T16:52:13;43;43;